sensor_id;sensor_type;location;lat;lon;timestamp;temperature;humidity
5631;DHT22;2837;50.990;7.124;2023-01-01T06:01:17;13.40;99.90
5631;DHT22;2837;50.990;7.124;2023-01-01T06:03:43;13.40;99.90
5631;DHT22;2837;50.990;7.124;2023-01-01T06:06:14;13.50;99.90
5631;DHT22;2837;50.990;7.124;2023-01-01T06:08:40;13.40;99.90
5631;DHT22;2837;50.990;7.124;2023-01-01T06:11:08;13.40;99.90
5631;DHT22;2837;50.990;7.124;2023-01-01T06:13:35;13.40;99.90
5631;DHT22;2837;50.990;7.124;2023-01-01T06:16:01;13.40;99.90
5631;DHT22;2837;50.990;7.124;2023-01-01T06:18:32;13.40;99.90
5631;DHT22;2837;50.990;7.124;2023-01-01T06:23:33;13.40;99.90
5631;DHT22;2837;50.990;7.124;2023-01-01T06:26:06;13.40;99.90
5631;DHT22;2837;50.990;7.124;2023-01-01T06:28:32;13.40;99.90
5631;DHT22;2837;50.990;7.124;2023-01-01T06:30:59;13.40;99.90
5631;DHT22;2837;50.990;7.124;2023-01-01T06:33:25;14.00;99.90
5631;DHT22;2837;50.990;7.124;2023-01-01T06:35:51;13.40;99.90
5631;DHT22;2837;50.990;7.124;2023-01-01T06:38:16;13.30;99.90
5631;DHT22;2837;50.990;7.124;2023-01-01T06:40:42;13.40;99.90
5631;DHT22;2837;50.990;7.124;2023-01-01T06:43:07;13.50;99.90
5631;DHT22;2837;50.990;7.124;2023-01-01T06:45:33;13.40;99.90
5631;DHT22;2837;50.990;7.124;2023-01-01T06:47:58;13.30;99.90
5631;DHT22;2837;50.990;7.124;2023-01-01T06:50:24;13.30;99.90
5631;DHT22;2837;50.990;7.124;2023-01-01T06:52:49;14.00;99.90
5631;DHT22;2837;50.990;7.124;2023-01-01T06:55:15;14.80;99.90
5631;DHT22;2837;50.990;7.124;2023-01-01T06:57:41;13.40;99.90
5631;DHT22;2837;50.990;7.124;2023-01-01T07:00:07;14.00;99.90
5631;DHT22;2837;50.990;7.124;2023-01-01T07:02:32;13.40;99.90
5631;DHT22;2837;50.990;7.124;2023-01-01T07:04:58;13.40;99.90
5631;DHT22;2837;50.990;7.124;2023-01-01T07:07:23;13.40;99.90
5631;DHT22;2837;50.990;7.124;2023-01-01T07:09:49;13.40;99.90
5631;DHT22;2837;50.990;7.124;2023-01-01T07:12:14;13.40;99.90
5631;DHT22;2837;50.990;7.124;2023-01-01T07:14:40;13.50;99.90
5631;DHT22;2837;50.990;7.124;2023-01-01T07:17:05;13.40;99.90
5631;DHT22;2837;50.990;7.124;2023-01-01T07:19:32;13.30;99.90
5631;DHT22;2837;50.990;7.124;2023-01-01T07:21:57;13.40;99.90
5631;DHT22;2837;50.990;7.124;2023-01-01T07:24:23;13.30;99.90
5631;DHT22;2837;50.990;7.124;2023-01-01T07:26:48;13.30;99.90
5631;DHT22;2837;50.990;7.124;2023-01-01T07:29:14;13.30;99.90
5631;DHT22;2837;50.990;7.124;2023-01-01T07:31:41;13.50;99.90
5631;DHT22;2837;50.990;7.124;2023-01-01T07:34:14;13.40;99.90
5631;DHT22;2837;50.990;7.124;2023-01-01T07:36:41;13.40;99.90
5631;DHT22;2837;50.990;7.124;2023-01-01T07:39:07;14.60;99.90
5631;DHT22;2837;50.990;7.124;2023-01-01T07:41:32;13.40;99.90
5631;DHT22;2837;50.990;7.124;2023-01-01T07:43:58;13.40;99.90
5631;DHT22;2837;50.990;7.124;2023-01-01T07:46:23;13.30;99.90
5631;DHT22;2837;50.990;7.124;2023-01-01T07:48:49;13.30;99.90
5631;DHT22;2837;50.990;7.124;2023-01-01T07:51:15;13.30;99.90
5631;DHT22;2837;50.990;7.124;2023-01-01T07:53:40;14.00;99.90
5631;DHT22;2837;50.990;7.124;2023-01-01T07:56:06;14.90;99.90
5631;DHT22;2837;50.990;7.124;2023-01-01T07:58:32;13.40;99.90
5631;DHT22;2837;50.990;7.124;2023-01-01T08:00:57;13.90;99.90
5631;DHT22;2837;50.990;7.124;2023-01-01T08:03:23;14.50;99.90
5631;DHT22;2837;50.990;7.124;2023-01-01T08:05:48;13.40;99.90
5631;DHT22;2837;50.990;7.124;2023-01-01T08:08:14;13.40;99.90
5631;DHT22;2837;50.990;7.124;2023-01-01T08:10:40;13.80;99.90
5631;DHT22;2837;50.990;7.124;2023-01-01T08:13:07;13.40;99.90
5631;DHT22;2837;50.990;7.124;2023-01-01T08:15:33;13.40;99.90
5631;DHT22;2837;50.990;7.124;2023-01-01T08:18:00;13.30;99.90
5631;DHT22;2837;50.990;7.124;2023-01-01T08:20:27;13.30;99.90
5631;DHT22;2837;50.990;7.124;2023-01-01T08:22:53;14.00;99.90
5631;DHT22;2837;50.990;7.124;2023-01-01T08:25:18;13.30;99.90
5631;DHT22;2837;50.990;7.124;2023-01-01T08:27:44;14.20;99.90
5631;DHT22;2837;50.990;7.124;2023-01-01T08:30:12;13.40;99.90
5631;DHT22;2837;50.990;7.124;2023-01-01T08:32:38;13.30;99.90
5631;DHT22;2837;50.990;7.124;2023-01-01T08:35:04;13.30;99.90
5631;DHT22;2837;50.990;7.124;2023-01-01T08:37:30;13.40;99.90
5631;DHT22;2837;50.990;7.124;2023-01-01T08:39:55;13.40;99.90
5631;DHT22;2837;50.990;7.124;2023-01-01T08:42:21;14.10;99.90
5631;DHT22;2837;50.990;7.124;2023-01-01T08:44:46;13.30;99.90
5631;DHT22;2837;50.990;7.124;2023-01-01T08:47:23;13.30;99.90
5631;DHT22;2837;50.990;7.124;2023-01-01T08:49:49;13.30;99.90
5631;DHT22;2837;50.990;7.124;2023-01-01T08:52:14;13.30;99.90
5631;DHT22;2837;50.990;7.124;2023-01-01T08:54:40;14.60;99.90
5631;DHT22;2837;50.990;7.124;2023-01-01T08:57:06;13.30;99.90
5631;DHT22;2837;50.990;7.124;2023-01-01T08:59:31;14.80;99.90
5631;DHT22;2837;50.990;7.124;2023-01-01T09:01:57;13.40;99.90
5631;DHT22;2837;50.990;7.124;2023-01-01T09:04:24;13.30;99.90
5631;DHT22;2837;50.990;7.124;2023-01-01T09:06:49;13.30;99.90
5631;DHT22;2837;50.990;7.124;2023-01-01T09:09:15;13.40;99.90
5631;DHT22;2837;50.990;7.124;2023-01-01T09:11:56;13.30;99.90
5631;DHT22;2837;50.990;7.124;2023-01-01T09:14:23;13.40;99.90
5631;DHT22;2837;50.990;7.124;2023-01-01T09:16:49;13.30;99.90
5631;DHT22;2837;50.990;7.124;2023-01-01T09:19:15;13.30;99.90
5631;DHT22;2837;50.990;7.124;2023-01-01T09:21:40;13.90;99.90
5631;DHT22;2837;50.990;7.124;2023-01-01T09:24:06;14.50;99.90
5631;DHT22;2837;50.990;7.124;2023-01-01T09:26:32;13.40;99.90
5631;DHT22;2837;50.990;7.124;2023-01-01T09:28:57;14.60;99.90
5631;DHT22;2837;50.990;7.124;2023-01-01T09:31:23;14.70;99.90
5631;DHT22;2837;50.990;7.124;2023-01-01T09:33:49;13.50;99.90
5631;DHT22;2837;50.990;7.124;2023-01-01T09:36:27;13.50;99.90
5631;DHT22;2837;50.990;7.124;2023-01-01T09:38:54;13.40;99.90
5631;DHT22;2837;50.990;7.124;2023-01-01T09:44:24;13.40;99.90
5631;DHT22;2837;50.990;7.124;2023-01-01T09:46:46;13.40;99.90
5631;DHT22;2837;50.990;7.124;2023-01-01T09:49:38;13.40;99.90
5631;DHT22;2837;50.990;7.124;2023-01-01T09:52:04;13.40;99.90
5631;DHT22;2837;50.990;7.124;2023-01-01T09:54:38;13.50;99.90
5631;DHT22;2837;50.990;7.124;2023-01-01T09:57:06;13.30;99.90
5631;DHT22;2837;50.990;7.124;2023-01-01T09:59:35;13.40;99.90
5631;DHT22;2837;50.990;7.124;2023-01-01T10:13:45;13.40;99.90
5631;DHT22;2837;50.990;7.124;2023-01-01T10:16:26;13.50;99.90
5631;DHT22;2837;50.990;7.124;2023-01-01T10:18:58;13.50;99.90
5631;DHT22;2837;50.990;7.124;2023-01-01T10:21:30;13.70;99.90
5631;DHT22;2837;50.990;7.124;2023-01-01T10:24:08;13.70;99.90
5631;DHT22;2837;50.990;7.124;2023-01-01T10:26:39;13.50;99.90
5631;DHT22;2837;50.990;7.124;2023-01-01T10:31:35;13.60;99.90
5631;DHT22;2837;50.990;7.124;2023-01-01T10:34:14;13.50;99.90
5631;DHT22;2837;50.990;7.124;2023-01-01T10:36:42;13.60;99.90
5631;DHT22;2837;50.990;7.124;2023-01-01T10:39:14;13.60;99.90
5631;DHT22;2837;50.990;7.124;2023-01-01T10:41:39;13.60;99.90
5631;DHT22;2837;50.990;7.124;2023-01-01T10:44:05;14.40;99.90
5631;DHT22;2837;50.990;7.124;2023-01-01T10:46:34;13.60;99.90
5631;DHT22;2837;50.990;7.124;2023-01-01T10:49:06;13.60;99.90
5631;DHT22;2837;50.990;7.124;2023-01-01T10:51:35;13.60;99.90
5631;DHT22;2837;50.990;7.124;2023-01-01T10:54:01;13.70;99.90
5631;DHT22;2837;50.990;7.124;2023-01-01T10:56:38;14.00;99.90
5631;DHT22;2837;50.990;7.124;2023-01-01T10:59:37;13.70;99.90
5631;DHT22;2837;50.990;7.124;2023-01-01T11:02:26;13.70;99.90
5631;DHT22;2837;50.990;7.124;2023-01-01T11:05:13;13.70;99.90
5631;DHT22;2837;50.990;7.124;2023-01-01T11:07:40;13.60;99.90
5631;DHT22;2837;50.990;7.124;2023-01-01T11:10:11;13.70;99.90
5631;DHT22;2837;50.990;7.124;2023-01-01T11:12:39;13.60;99.90
5631;DHT22;2837;50.990;7.124;2023-01-01T11:15:06;13.60;99.90
5631;DHT22;2837;50.990;7.124;2023-01-01T11:17:34;13.60;99.90
5631;DHT22;2837;50.990;7.124;2023-01-01T11:20:00;13.60;99.90
5631;DHT22;2837;50.990;7.124;2023-01-01T11:22:53;13.90;99.90
5631;DHT22;2837;50.990;7.124;2023-01-01T11:25:27;13.60;99.90
5631;DHT22;2837;50.990;7.124;2023-01-01T11:30:45;13.70;99.90
5631;DHT22;2837;50.990;7.124;2023-01-01T11:33:22;13.60;99.90
5631;DHT22;2837;50.990;7.124;2023-01-01T11:35:51;13.60;99.90
5631;DHT22;2837;50.990;7.124;2023-01-01T11:38:19;13.60;99.90
5631;DHT22;2837;50.990;7.124;2023-01-01T11:40:47;13.50;99.90
5631;DHT22;2837;50.990;7.124;2023-01-01T11:43:38;13.60;99.90
5631;DHT22;2837;50.990;7.124;2023-01-01T11:46:08;13.50;99.90
5631;DHT22;2837;50.990;7.124;2023-01-01T11:48:35;14.10;99.90
5631;DHT22;2837;50.990;7.124;2023-01-01T11:51:07;13.50;99.90
5631;DHT22;2837;50.990;7.124;2023-01-01T11:53:38;13.50;99.90
5631;DHT22;2837;50.990;7.124;2023-01-01T11:56:20;13.60;99.90
5631;DHT22;2837;50.990;7.124;2023-01-01T11:58:59;13.60;99.90
5631;DHT22;2837;50.990;7.124;2023-01-01T12:01:35;13.60;99.90
5631;DHT22;2837;50.990;7.124;2023-01-01T12:06:42;13.50;99.90
5631;DHT22;2837;50.990;7.124;2023-01-01T12:09:35;13.60;99.90
5631;DHT22;2837;50.990;7.124;2023-01-01T12:12:28;13.60;99.90
5631;DHT22;2837;50.990;7.124;2023-01-01T12:17:45;13.50;99.90
5631;DHT22;2837;50.990;7.124;2023-01-01T12:20:27;14.20;99.90
5631;DHT22;2837;50.990;7.124;2023-01-01T12:22:57;13.60;99.90
5631;DHT22;2837;50.990;7.124;2023-01-01T12:25:30;13.50;99.90
5631;DHT22;2837;50.990;7.124;2023-01-01T12:28:02;13.50;99.90
5631;DHT22;2837;50.990;7.124;2023-01-01T12:31:15;13.50;99.90
5631;DHT22;2837;50.990;7.124;2023-01-01T12:33:37;13.50;99.90
5631;DHT22;2837;50.990;7.124;2023-01-01T12:36:28;13.50;99.90
5631;DHT22;2837;50.990;7.124;2023-01-01T12:59:39;13.50;99.90
5631;DHT22;2837;50.990;7.124;2023-01-01T13:02:18;13.50;99.90
5631;DHT22;2837;50.990;7.124;2023-01-01T13:04:46;13.40;99.90
5631;DHT22;2837;50.990;7.124;2023-01-01T13:07:15;13.40;99.90
5631;DHT22;2837;50.990;7.124;2023-01-01T13:09:44;13.50;99.90
5631;DHT22;2837;50.990;7.124;2023-01-01T13:12:17;13.40;99.90
5631;DHT22;2837;50.990;7.124;2023-01-01T13:14:46;13.40;99.90
5631;DHT22;2837;50.990;7.124;2023-01-01T13:17:22;13.40;99.90
5631;DHT22;2837;50.990;7.124;2023-01-01T13:19:55;13.40;99.90
5631;DHT22;2837;50.990;7.124;2023-01-01T13:22:42;13.30;99.90
5631;DHT22;2837;50.990;7.124;2023-01-01T13:41:28;13.40;99.90
5631;DHT22;2837;50.990;7.124;2023-01-01T14:03:15;13.40;99.90
5631;DHT22;2837;50.990;7.124;2023-01-01T14:05:47;13.40;99.90
5631;DHT22;2837;50.990;7.124;2023-01-01T14:08:28;13.40;99.90
5631;DHT22;2837;50.990;7.124;2023-01-01T14:10:54;13.50;99.90
5631;DHT22;2837;50.990;7.124;2023-01-01T14:13:20;13.50;99.90
5631;DHT22;2837;50.990;7.124;2023-01-01T14:16:04;13.50;99.90
5631;DHT22;2837;50.990;7.124;2023-01-01T14:18:56;13.50;99.90
5631;DHT22;2837;50.990;7.124;2023-01-01T14:21:29;13.50;99.90
5631;DHT22;2837;50.990;7.124;2023-01-01T14:24:07;13.60;99.90
5631;DHT22;2837;50.990;7.124;2023-01-01T14:26:36;13.60;99.90
5631;DHT22;2837;50.990;7.124;2023-01-01T14:29:06;13.50;99.90
5631;DHT22;2837;50.990;7.124;2023-01-01T14:31:39;13.60;99.90
5631;DHT22;2837;50.990;7.124;2023-01-01T14:34:26;13.50;99.90
5631;DHT22;2837;50.990;7.124;2023-01-01T14:37:00;13.50;99.90
5631;DHT22;2837;50.990;7.124;2023-01-01T14:39:34;13.40;99.90
5631;DHT22;2837;50.990;7.124;2023-01-01T14:42:03;13.60;99.90
5631;DHT22;2837;50.990;7.124;2023-01-01T14:44:42;13.60;99.90
5631;DHT22;2837;50.990;7.124;2023-01-01T14:47:30;13.50;99.90
5631;DHT22;2837;50.990;7.124;2023-01-01T14:50:11;13.50;99.90
5631;DHT22;2837;50.990;7.124;2023-01-01T14:52:39;13.40;99.90
5631;DHT22;2837;50.990;7.124;2023-01-01T14:55:05;13.50;99.90
5631;DHT22;2837;50.990;7.124;2023-01-01T14:57:34;13.50;99.90
5631;DHT22;2837;50.990;7.124;2023-01-01T15:00:02;13.50;99.90
5631;DHT22;2837;50.990;7.124;2023-01-01T15:02:35;13.50;99.90
5631;DHT22;2837;50.990;7.124;2023-01-01T15:07:55;13.40;99.90
5631;DHT22;2837;50.990;7.124;2023-01-01T15:10:22;14.40;99.90
5631;DHT22;2837;50.990;7.124;2023-01-01T15:12:47;13.60;99.90
5631;DHT22;2837;50.990;7.124;2023-01-01T15:15:42;13.60;99.90
5631;DHT22;2837;50.990;7.124;2023-01-01T15:18:37;13.40;99.90
5631;DHT22;2837;50.990;7.124;2023-01-01T15:24:08;13.40;99.90
5631;DHT22;2837;50.990;7.124;2023-01-01T15:29:10;13.40;99.90
5631;DHT22;2837;50.990;7.124;2023-01-01T15:31:45;13.30;99.90
5631;DHT22;2837;50.990;7.124;2023-01-01T15:36:53;13.20;99.90
5631;DHT22;2837;50.990;7.124;2023-01-01T15:39:20;13.20;99.90
5631;DHT22;2837;50.990;7.124;2023-01-01T15:41:50;13.10;99.90
5631;DHT22;2837;50.990;7.124;2023-01-01T15:44:28;13.10;99.90
5631;DHT22;2837;50.990;7.124;2023-01-01T15:47:04;13.00;99.90
5631;DHT22;2837;50.990;7.124;2023-01-01T15:49:30;13.10;99.90
5631;DHT22;2837;50.990;7.124;2023-01-01T15:52:02;13.10;99.90
5631;DHT22;2837;50.990;7.124;2023-01-01T15:54:29;13.10;99.90
5631;DHT22;2837;50.990;7.124;2023-01-01T15:56:55;13.00;99.90
5631;DHT22;2837;50.990;7.124;2023-01-01T15:59:30;13.00;99.90
5631;DHT22;2837;50.990;7.124;2023-01-01T16:02:25;13.00;99.90
5631;DHT22;2837;50.990;7.124;2023-01-01T16:04:51;12.90;99.90
5631;DHT22;2837;50.990;7.124;2023-01-01T16:07:20;12.90;99.90
5631;DHT22;2837;50.990;7.124;2023-01-01T16:09:51;12.80;99.90
5631;DHT22;2837;50.990;7.124;2023-01-01T16:12:17;12.80;99.90
5631;DHT22;2837;50.990;7.124;2023-01-01T16:14:43;12.80;99.90
5631;DHT22;2837;50.990;7.124;2023-01-01T16:17:16;12.70;99.90
5631;DHT22;2837;50.990;7.124;2023-01-01T16:19:43;12.70;99.90
5631;DHT22;2837;50.990;7.124;2023-01-01T16:22:14;12.70;99.90
5631;DHT22;2837;50.990;7.124;2023-01-01T16:24:41;12.70;99.90
5631;DHT22;2837;50.990;7.124;2023-01-01T16:27:07;12.70;99.90
5631;DHT22;2837;50.990;7.124;2023-01-01T16:29:33;12.70;99.90
5631;DHT22;2837;50.990;7.124;2023-01-01T16:31:59;12.60;99.90
5631;DHT22;2837;50.990;7.124;2023-01-01T16:34:24;12.60;99.90
5631;DHT22;2837;50.990;7.124;2023-01-01T16:36:50;12.50;99.90
5631;DHT22;2837;50.990;7.124;2023-01-01T16:39:15;12.60;99.90
5631;DHT22;2837;50.990;7.124;2023-01-01T16:41:42;12.60;99.90
5631;DHT22;2837;50.990;7.124;2023-01-01T16:44:12;12.50;99.90
5631;DHT22;2837;50.990;7.124;2023-01-01T16:46:37;12.50;99.90
5631;DHT22;2837;50.990;7.124;2023-01-01T16:49:03;12.50;99.90
5631;DHT22;2837;50.990;7.124;2023-01-01T16:51:30;12.50;99.90
5631;DHT22;2837;50.990;7.124;2023-01-01T16:53:56;12.50;99.90
5631;DHT22;2837;50.990;7.124;2023-01-01T16:56:23;12.50;99.90
5631;DHT22;2837;50.990;7.124;2023-01-01T16:58:49;12.60;99.90
5631;DHT22;2837;50.990;7.124;2023-01-01T17:01:15;12.50;99.90
5631;DHT22;2837;50.990;7.124;2023-01-01T17:03:40;12.60;99.90
5631;DHT22;2837;50.990;7.124;2023-01-01T17:06:08;12.50;99.90
5631;DHT22;2837;50.990;7.124;2023-01-01T17:08:35;12.40;99.90
5631;DHT22;2837;50.990;7.124;2023-01-01T17:11:14;12.40;99.90
5631;DHT22;2837;50.990;7.124;2023-01-01T17:13:45;12.50;99.90
5631;DHT22;2837;50.990;7.124;2023-01-01T17:16:11;12.40;99.90
5631;DHT22;2837;50.990;7.124;2023-01-01T17:18:37;12.50;99.90
5631;DHT22;2837;50.990;7.124;2023-01-01T17:21:09;12.50;99.90
5631;DHT22;2837;50.990;7.124;2023-01-01T17:23:39;12.50;99.90
5631;DHT22;2837;50.990;7.124;2023-01-01T17:26:11;12.40;99.90
5631;DHT22;2837;50.990;7.124;2023-01-01T17:28:38;12.40;99.90
5631;DHT22;2837;50.990;7.124;2023-01-01T17:31:05;12.40;99.90
5631;DHT22;2837;50.990;7.124;2023-01-01T17:33:32;12.40;99.90
5631;DHT22;2837;50.990;7.124;2023-01-01T17:35:57;12.40;99.90
5631;DHT22;2837;50.990;7.124;2023-01-01T17:38:23;12.40;99.90
5631;DHT22;2837;50.990;7.124;2023-01-01T17:40:49;12.50;99.90
5631;DHT22;2837;50.990;7.124;2023-01-01T17:43:15;12.40;99.90
5631;DHT22;2837;50.990;7.124;2023-01-01T17:45:40;12.40;99.90
5631;DHT22;2837;50.990;7.124;2023-01-01T17:48:06;12.40;99.90
5631;DHT22;2837;50.990;7.124;2023-01-01T17:50:31;12.40;99.90
5631;DHT22;2837;50.990;7.124;2023-01-01T17:52:57;12.40;99.90
5631;DHT22;2837;50.990;7.124;2023-01-01T17:55:22;12.40;99.90
5631;DHT22;2837;50.990;7.124;2023-01-01T17:57:48;12.40;99.90
5631;DHT22;2837;50.990;7.124;2023-01-01T18:00:13;12.40;99.90
5631;DHT22;2837;50.990;7.124;2023-01-01T18:02:39;12.40;99.90
5631;DHT22;2837;50.990;7.124;2023-01-01T18:05:05;12.30;99.90
5631;DHT22;2837;50.990;7.124;2023-01-01T18:07:30;12.30;99.90
5631;DHT22;2837;50.990;7.124;2023-01-01T18:09:56;12.30;99.90
5631;DHT22;2837;50.990;7.124;2023-01-01T18:12:21;12.40;99.90
5631;DHT22;2837;50.990;7.124;2023-01-01T18:14:47;12.40;99.90
5631;DHT22;2837;50.990;7.124;2023-01-01T18:17:12;12.60;99.90
5631;DHT22;2837;50.990;7.124;2023-01-01T18:19:38;12.50;99.90
5631;DHT22;2837;50.990;7.124;2023-01-01T18:22:04;12.40;99.90
5631;DHT22;2837;50.990;7.124;2023-01-01T18:24:31;12.40;99.90
5631;DHT22;2837;50.990;7.124;2023-01-01T18:26:57;12.40;99.90
5631;DHT22;2837;50.990;7.124;2023-01-01T18:29:22;12.40;99.90
5631;DHT22;2837;50.990;7.124;2023-01-01T18:31:48;12.40;99.90
5631;DHT22;2837;50.990;7.124;2023-01-01T18:34:15;12.30;99.90
5631;DHT22;2837;50.990;7.124;2023-01-01T18:36:41;12.40;99.90
5631;DHT22;2837;50.990;7.124;2023-01-01T18:46:39;12.40;99.90
5631;DHT22;2837;50.990;7.124;2023-01-01T18:49:07;12.40;99.90
5631;DHT22;2837;50.990;7.124;2023-01-01T18:51:34;12.40;99.90
5631;DHT22;2837;50.990;7.124;2023-01-01T18:53:59;12.40;99.90
5631;DHT22;2837;50.990;7.124;2023-01-01T18:56:25;12.40;99.90
5631;DHT22;2837;50.990;7.124;2023-01-01T18:58:53;12.70;99.90
5631;DHT22;2837;50.990;7.124;2023-01-01T19:01:22;12.40;99.90
5631;DHT22;2837;50.990;7.124;2023-01-01T19:03:59;13.20;99.90
5631;DHT22;2837;50.990;7.124;2023-01-01T19:06:27;12.30;99.90
5631;DHT22;2837;50.990;7.124;2023-01-01T19:09:22;12.30;99.90
5631;DHT22;2837;50.990;7.124;2023-01-01T19:11:51;12.30;99.90
5631;DHT22;2837;50.990;7.124;2023-01-01T19:14:22;12.30;99.90
5631;DHT22;2837;50.990;7.124;2023-01-01T19:16:50;12.40;99.90
5631;DHT22;2837;50.990;7.124;2023-01-01T19:19:38;12.30;99.90
5631;DHT22;2837;50.990;7.124;2023-01-01T19:22:26;12.30;99.90
5631;DHT22;2837;50.990;7.124;2023-01-01T19:24:53;12.30;99.90
5631;DHT22;2837;50.990;7.124;2023-01-01T19:27:19;12.20;99.90
5631;DHT22;2837;50.990;7.124;2023-01-01T19:29:48;12.30;99.90
5631;DHT22;2837;50.990;7.124;2023-01-01T19:32:14;12.30;99.90
5631;DHT22;2837;50.990;7.124;2023-01-01T19:34:39;12.20;99.90
5631;DHT22;2837;50.990;7.124;2023-01-01T19:37:06;12.20;99.90
5631;DHT22;2837;50.990;7.124;2023-01-01T19:39:32;12.20;99.90
5631;DHT22;2837;50.990;7.124;2023-01-01T19:42:02;12.90;99.90
5631;DHT22;2837;50.990;7.124;2023-01-01T19:44:30;12.20;99.90
5631;DHT22;2837;50.990;7.124;2023-01-01T19:46:55;12.30;99.90
5631;DHT22;2837;50.990;7.124;2023-01-01T19:49:22;12.40;99.90
5631;DHT22;2837;50.990;7.124;2023-01-01T19:51:47;12.20;99.90
5631;DHT22;2837;50.990;7.124;2023-01-01T19:54:13;12.50;99.90
5631;DHT22;2837;50.990;7.124;2023-01-01T19:56:39;12.30;99.90
5631;DHT22;2837;50.990;7.124;2023-01-01T19:59:04;12.80;99.90
5631;DHT22;2837;50.990;7.124;2023-01-01T20:01:30;12.20;99.90
5631;DHT22;2837;50.990;7.124;2023-01-01T20:03:55;13.20;99.90
5631;DHT22;2837;50.990;7.124;2023-01-01T20:06:25;12.50;99.90
5631;DHT22;2837;50.990;7.124;2023-01-01T20:08:51;12.40;99.90
5631;DHT22;2837;50.990;7.124;2023-01-01T20:11:16;13.30;99.90
5631;DHT22;2837;50.990;7.124;2023-01-01T20:13:42;12.20;99.90
5631;DHT22;2837;50.990;7.124;2023-01-01T20:16:07;12.40;99.90
5631;DHT22;2837;50.990;7.124;2023-01-01T20:18:33;12.90;99.90
5631;DHT22;2837;50.990;7.124;2023-01-01T20:20:59;12.20;99.90
5631;DHT22;2837;50.990;7.124;2023-01-01T20:23:43;12.10;99.90
5631;DHT22;2837;50.990;7.124;2023-01-01T20:26:09;12.30;99.90
5631;DHT22;2837;50.990;7.124;2023-01-01T20:28:34;13.30;99.90
5631;DHT22;2837;50.990;7.124;2023-01-01T20:31:19;13.00;99.90
5631;DHT22;2837;50.990;7.124;2023-01-01T20:33:44;12.30;99.90
5631;DHT22;2837;50.990;7.124;2023-01-01T20:36:10;12.30;99.90
5631;DHT22;2837;50.990;7.124;2023-01-01T20:38:54;12.30;99.90
5631;DHT22;2837;50.990;7.124;2023-01-01T20:41:20;12.30;99.90
5631;DHT22;2837;50.990;7.124;2023-01-01T20:44:06;12.30;99.90
5631;DHT22;2837;50.990;7.124;2023-01-01T20:46:32;12.30;99.90
5631;DHT22;2837;50.990;7.124;2023-01-01T20:48:57;13.00;99.90
5631;DHT22;2837;50.990;7.124;2023-01-01T20:51:23;12.80;99.90
5631;DHT22;2837;50.990;7.124;2023-01-01T20:53:49;13.30;99.90
5631;DHT22;2837;50.990;7.124;2023-01-01T20:56:14;12.30;99.90
5631;DHT22;2837;50.990;7.124;2023-01-01T20:58:40;12.40;99.90
5631;DHT22;2837;50.990;7.124;2023-01-01T21:01:05;12.40;99.90
5631;DHT22;2837;50.990;7.124;2023-01-01T21:03:31;12.40;99.90
5631;DHT22;2837;50.990;7.124;2023-01-01T21:05:57;12.40;99.90
5631;DHT22;2837;50.990;7.124;2023-01-01T21:08:22;12.60;99.90
5631;DHT22;2837;50.990;7.124;2023-01-01T21:10:48;13.00;99.90
5631;DHT22;2837;50.990;7.124;2023-01-01T21:13:13;13.40;99.90
5631;DHT22;2837;50.990;7.124;2023-01-01T21:15:39;13.10;99.90
5631;DHT22;2837;50.990;7.124;2023-01-01T21:18:04;13.10;99.90
5631;DHT22;2837;50.990;7.124;2023-01-01T21:20:34;12.50;99.90
5631;DHT22;2837;50.990;7.124;2023-01-01T21:23:01;12.60;99.90
5631;DHT22;2837;50.990;7.124;2023-01-01T21:25:27;12.50;99.90
5631;DHT22;2837;50.990;7.124;2023-01-01T21:27:57;12.50;99.90
5631;DHT22;2837;50.990;7.124;2023-01-01T21:30:23;12.60;99.90
5631;DHT22;2837;50.990;7.124;2023-01-01T21:32:48;12.60;99.90
5631;DHT22;2837;50.990;7.124;2023-01-01T21:35:22;12.60;99.90
5631;DHT22;2837;50.990;7.124;2023-01-01T21:37:58;12.60;99.90
5631;DHT22;2837;50.990;7.124;2023-01-01T21:40:37;12.60;99.90
5631;DHT22;2837;50.990;7.124;2023-01-01T21:45:42;12.70;99.90
5631;DHT22;2837;50.990;7.124;2023-01-01T21:48:26;12.60;99.90
5631;DHT22;2837;50.990;7.124;2023-01-01T21:50:52;12.70;99.90
5631;DHT22;2837;50.990;7.124;2023-01-01T21:53:23;12.70;99.90
5631;DHT22;2837;50.990;7.124;2023-01-01T21:55:52;12.70;99.90
5631;DHT22;2837;50.990;7.124;2023-01-01T21:58:41;12.80;99.90
